Terminal Aerodrome Forecast
Issued by NWS Tallahassee, FL

Home | Current Version | Previous Version | Text Only | Print | Product List | Glossary On
Versions: 1 2 3 4 5 6 7 8 9 10 11 12 13 14
265
FTUS42 KTAE 212334
TAFTLH
TAF
KTLH 212334Z 2200/2224 VRB04KT P6SM SCT050 SCT200
     FM221400 19007KT P6SM SCT030
     FM221800 19005KT 6SM -TSRA BKN050CB=

USA.gov is the U.S. government's official web portal to all federal, state and local government web resources and services.